Bookmark and Share
Track history (hours):
 

Island Lookout

More information available from US FCC via Universal Licensing System and Coast Guard Vessel Documentation Center.

Last reported at 2014-Apr-22 04:24 UTC. Time now 2014-Apr-24 02:13 UTC.
Position N 36°36' W 076°03'.

Length 22 m; draft 2.9 m.

Type: Towing. MMSI: 367472930.

NotesDate/timePositionNaut miles runAvg speedWind from/ knotsBaromVisibWave heightAir tempDewpointWater temp
2014-Apr-22 04:24N 36°36' W 076°03'  
2014-Apr-18 22:33N 39°00' W 076°23'8 6.7
2014-Apr-18 21:24N 39°08' W 076°24'5 6.3
2014-Apr-18 20:33N 39°11' W 076°29'6 6.2
2014-Apr-18 19:33N 39°15' W 076°35'0 0.5
2014-Apr-18 18:33N 39°16' W 076°35'0 0.0
2014-Apr-18 17:33N 39°16' W 076°35'0 0.0
2014-Apr-18 16:33N 39°16' W 076°35'0 0.0
2014-Apr-18 15:33N 39°16' W 076°35'0 0.0
2014-Apr-18 14:33N 39°16' W 076°35'0 0.0
2014-Apr-18 13:33N 39°16' W 076°35'0 0.0
2014-Apr-18 12:34N 39°16' W 076°35'0 0.0
2014-Apr-18 11:33N 39°16' W 076°35'1 0.7
2014-Apr-18 10:33N 39°16' W 076°36'0 0.0
2014-Apr-18 09:33N 39°16' W 076°36'0 0.0
2014-Apr-18 08:33N 39°16' W 076°36'0 0.0
2014-Apr-18 07:33N 39°16' W 076°36'0 0.0
2014-Apr-18 06:33N 39°16' W 076°36'0 0.0
2014-Apr-18 05:33N 39°16' W 076°36'0 0.0
2014-Apr-18 04:33N 39°16' W 076°36'0 0.0
2014-Apr-18 03:33N 39°16' W 076°36'0 0.0
2014-Apr-18 02:33N 39°16' W 076°36'0 0.0
2014-Apr-18 01:34N 39°16' W 076°36'1 0.7
2014-Apr-18 00:33N 39°16' W 076°35'0 0.0
2014-Apr-17 23:33N 39°16' W 076°35'0 0.1
2014-Apr-17 22:33N 39°16' W 076°36'3 3.1
2014-Apr-17 21:32N 39°13' W 076°35'0 0.1
2014-Apr-17 20:30N 39°13' W 076°35'0 0.0
2014-Apr-17 19:33N 39°13' W 076°35'0 0.0
2014-Apr-17 18:33N 39°13' W 076°35'0 0.0
2014-Apr-17 17:33N 39°13' W 076°35'0 0.0
2014-Apr-17 16:33N 39°13' W 076°35'0 0.0
2014-Apr-17 15:33N 39°13' W 076°35'0 0.0
2014-Apr-17 14:33N 39°13' W 076°35'0 0.1
2014-Apr-17 13:24N 39°13' W 076°35'4 4.3
2014-Apr-17 12:33N 39°12' W 076°30'7 6.6
2014-Apr-17 11:33N 39°08' W 076°24'  
2014-Apr-13 21:16N 37°22' W 076°10'4 6.0
2014-Apr-13 20:33N 37°18' W 076°11'6 6.2
2014-Apr-13 19:33N 37°12' W 076°12'6 6.0
2014-Apr-13 18:34N 37°06' W 076°13'7 6.8
2014-Apr-13 17:33N 36°60' W 076°17'8 7.8
2014-Apr-13 16:33N 36°52' W 076°20'10 1.4
2014-Apr-13 09:23N 36°43' W 076°15'8 3.9
2014-Apr-13 07:24N 36°43' W 076°05'  

Dump ship's entire track history

sailing weather and tide predictions

Island Lookout — WDF6311 — position and weather